Agaogullari-5 — TC5282 — position and weather

sailwx.info

Track history (hours):
 
Tides and Currents Weather Stations Pressure Air Temp Water Temp Dewpoint Dewpoint Depression Visibility Wind Speed Wind Dir Waves Ship Positions

Agaogullari-5

Last reported at 2014-Apr-06 02:33 UTC. Time now 2014-Jul-28 04:23 UTC.
Position N 40°36' E 026°01'.
Warning: this ship's position is months out of date.

Length 40 m.

Type: Fishing. MMSI: 271072163.

Date/timePositionNaut miles runAvg speedWind from/ knotsBaromVisibWave heightAir tempDewpointWater temp
2014-Apr-06 02:33N 40°36' E 026°01'7 7.4
2014-Apr-06 01:33N 40°39' E 025°52'0 0.4
2014-Apr-06 00:33N 40°39' E 025°52'2 2.3
2014-Apr-05 23:34N 40°41' E 025°53'3 1.4
2014-Apr-05 21:33N 40°39' E 025°52'0 0.5
2014-Apr-05 20:31N 40°38' E 025°53'0 0.2
2014-Apr-05 19:34N 40°38' E 025°53'1 0.9
2014-Apr-05 18:33N 40°38' E 025°52'4 4.3
2014-Apr-05 17:33N 40°42' E 025°54'1 0.8
2014-Apr-05 16:34N 40°42' E 025°53'1 1.1
2014-Apr-05 15:29N 40°43' E 025°52'2 2.0
2014-Apr-05 14:33N 40°45' E 025°51'1 0.8
2014-Apr-05 13:33N 40°44' E 025°50'7 6.9
2014-Apr-05 12:32N 40°43' E 025°59'1 0.2
2014-Apr-05 03:33N 40°43' E 026°01'6 6.1
2014-Apr-05 02:33N 40°44' E 025°53'3 2.8
2014-Apr-05 01:33N 40°45' E 025°49'0 0.2
2014-Apr-05 00:33N 40°45' E 025°49'0 0.2
2014-Apr-04 23:28N 40°45' E 025°49'0 0.3
2014-Apr-04 22:28N 40°45' E 025°49'0 0.3
2014-Apr-04 21:33N 40°45' E 025°49'4 0.5
2014-Apr-04 13:24N 40°43' E 025°44'3 3.2
2014-Apr-04 12:25N 40°42' E 025°47'1 1.0
2014-Apr-04 11:31N 40°41' E 025°47'0 0.2
2014-Apr-04 10:33N 40°41' E 025°47'0 0.1
2014-Apr-04 05:17N 40°42' E 025°47'0 0.0
2014-Apr-04 03:17N 40°42' E 025°47'3 1.6
2014-Apr-04 01:33N 40°42' E 025°51'7 7.3
2014-Apr-04 00:33N 40°42' E 026°00'2 1.5
2014-Apr-03 23:04N 40°42' E 026°03'4 8.2
2014-Apr-03 22:33N 40°43' E 025°58'9 8.5
2014-Apr-03 21:30N 40°44' E 025°46'1 0.9
2014-Apr-03 20:14N 40°44' E 025°45'1 0.3
2014-Apr-03 16:33N 40°45' E 025°46'0 0.3
2014-Apr-03 15:32N 40°45' E 025°46'1 0.5
2014-Apr-03 14:30N 40°45' E 025°46'0 0.2
2014-Apr-03 13:14N 40°45' E 025°46'4 5.4
2014-Apr-03 12:33N 40°45' E 025°51'7 7.2
2014-Apr-03 11:33N 40°43' E 025°60'3 1.3
2014-Apr-03 09:24N 40°42' E 026°03'0 0.0
2014-Apr-03 06:06N 40°42' E 026°03'0 0.0
2014-Apr-03 05:15N 40°42' E 026°03'0 0.0
2014-Apr-03 04:21N 40°42' E 026°03'0 0.0
2014-Apr-03 01:21N 40°42' E 026°03'0 0.0
2014-Apr-03 00:15N 40°42' E 026°03'3 1.0
2014-Apr-02 21:25N 40°41' E 025°60'5 5.7
2014-Apr-02 20:33N 40°40' E 025°53'1 0.7
2014-Apr-02 19:32N 40°39' E 025°53'1 0.7
2014-Apr-02 18:31N 40°39' E 025°54'0 0.4
2014-Apr-02 17:31N 40°40' E 025°54'0 0.3
2014-Apr-02 16:32N 40°40' E 025°54'5 4.5
2014-Apr-02 15:32N 40°42' E 025°49'3 1.3
2014-Apr-02 13:28N 40°41' E 025°45'1 1.1
2014-Apr-02 12:26N 40°40' E 025°45'3 4.0
2014-Apr-02 11:33N 40°41' E 025°50'5 4.6
2014-Apr-02 10:32N 40°44' E 025°46'6 5.6
2014-Apr-02 09:33N 40°41' E 025°52'0 0.2
2014-Apr-02 08:27N 40°41' E 025°52'3 2.9
2014-Apr-02 07:30N 40°39' E 025°54'  
2014-Mar-27 23:28N 40°31' E 026°32'  
Track history (hours):
 
Tides and Currents Weather Stations Pressure Air Temp Water Temp Dewpoint Dewpoint Depression Visibility Wind Speed Wind Dir Waves Ship Positions

Agaogullari-5

Last reported at 2014-Apr-06 02:33 UTC. Time now 2014-Jul-28 04:23 UTC.
Position N 40°36' E 026°01'.
Warning: this ship's position is months out of date.

Length 40 m.

Type: Fishing. MMSI: 271072163.

Date/timePositionNaut miles runAvg speedWind from/ knotsBaromVisibWave heightAir tempDewpointWater temp
2014-Apr-06 02:33N 40°36' E 026°01'7 7.4
2014-Apr-06 01:33N 40°39' E 025°52'0 0.4
2014-Apr-06 00:33N 40°39' E 025°52'2 2.3
2014-Apr-05 23:34N 40°41' E 025°53'3 1.4
2014-Apr-05 21:33N 40°39' E 025°52'0 0.5
2014-Apr-05 20:31N 40°38' E 025°53'0 0.2
2014-Apr-05 19:34N 40°38' E 025°53'1 0.9
2014-Apr-05 18:33N 40°38' E 025°52'4 4.3
2014-Apr-05 17:33N 40°42' E 025°54'1 0.8
2014-Apr-05 16:34N 40°42' E 025°53'1 1.1
2014-Apr-05 15:29N 40°43' E 025°52'2 2.0
2014-Apr-05 14:33N 40°45' E 025°51'1 0.8
2014-Apr-05 13:33N 40°44' E 025°50'7 6.9
2014-Apr-05 12:32N 40°43' E 025°59'1 0.2
2014-Apr-05 03:33N 40°43' E 026°01'6 6.1
2014-Apr-05 02:33N 40°44' E 025°53'3 2.8
2014-Apr-05 01:33N 40°45' E 025°49'0 0.2
2014-Apr-05 00:33N 40°45' E 025°49'0 0.2
2014-Apr-04 23:28N 40°45' E 025°49'0 0.3
2014-Apr-04 22:28N 40°45' E 025°49'0 0.3
2014-Apr-04 21:33N 40°45' E 025°49'4 0.5
2014-Apr-04 13:24N 40°43' E 025°44'3 3.2
2014-Apr-04 12:25N 40°42' E 025°47'1 1.0
2014-Apr-04 11:31N 40°41' E 025°47'0 0.2
2014-Apr-04 10:33N 40°41' E 025°47'0 0.1
2014-Apr-04 05:17N 40°42' E 025°47'0 0.0
2014-Apr-04 03:17N 40°42' E 025°47'3 1.6
2014-Apr-04 01:33N 40°42' E 025°51'7 7.3
2014-Apr-04 00:33N 40°42' E 026°00'2 1.5
2014-Apr-03 23:04N 40°42' E 026°03'4 8.2
2014-Apr-03 22:33N 40°43' E 025°58'9 8.5
2014-Apr-03 21:30N 40°44' E 025°46'1 0.9
2014-Apr-03 20:14N 40°44' E 025°45'1 0.3
2014-Apr-03 16:33N 40°45' E 025°46'0 0.3
2014-Apr-03 15:32N 40°45' E 025°46'1 0.5
2014-Apr-03 14:30N 40°45' E 025°46'0 0.2
2014-Apr-03 13:14N 40°45' E 025°46'4 5.4
2014-Apr-03 12:33N 40°45' E 025°51'7 7.2
2014-Apr-03 11:33N 40°43' E 025°60'3 1.3
2014-Apr-03 09:24N 40°42' E 026°03'0 0.0
2014-Apr-03 06:06N 40°42' E 026°03'0 0.0
2014-Apr-03 05:15N 40°42' E 026°03'0 0.0
2014-Apr-03 04:21N 40°42' E 026°03'0 0.0
2014-Apr-03 01:21N 40°42' E 026°03'0 0.0
2014-Apr-03 00:15N 40°42' E 026°03'3 1.0
2014-Apr-02 21:25N 40°41' E 025°60'5 5.7
2014-Apr-02 20:33N 40°40' E 025°53'1 0.7
2014-Apr-02 19:32N 40°39' E 025°53'1 0.7
2014-Apr-02 18:31N 40°39' E 025°54'0 0.4
2014-Apr-02 17:31N 40°40' E 025°54'0 0.3
2014-Apr-02 16:32N 40°40' E 025°54'5 4.5
2014-Apr-02 15:32N 40°42' E 025°49'3 1.3
2014-Apr-02 13:28N 40°41' E 025°45'1 1.1
2014-Apr-02 12:26N 40°40' E 025°45'3 4.0
2014-Apr-02 11:33N 40°41' E 025°50'5 4.6
2014-Apr-02 10:32N 40°44' E 025°46'6 5.6
2014-Apr-02 09:33N 40°41' E 025°52'0 0.2
2014-Apr-02 08:27N 40°41' E 025°52'3 2.9
2014-Apr-02 07:30N 40°39' E 025°54'  
2014-Mar-27 23:28N 40°31' E 026°32'  

Dump ship's entire track history